sensor_id;sensor_type;location;lat;lon;timestamp;pressure;altitude;pressure_sealevel;temperature;humidity
81033;BME280;70514;52.478;6.102;2023-10-19T00:00:58;99576.78;;;8.25;100.00
81033;BME280;70514;52.478;6.102;2023-10-19T00:03:27;99570.03;;;8.02;100.00
81033;BME280;70514;52.478;6.102;2023-10-19T00:05:56;99560.63;;;8.03;100.00
81033;BME280;70514;52.478;6.102;2023-10-19T00:08:26;99572.56;;;8.04;100.00
81033;BME280;70514;52.478;6.102;2023-10-19T00:11:05;99574.28;;;8.02;100.00
81033;BME280;70514;52.478;6.102;2023-10-19T00:13:39;99572.56;;;8.04;100.00
81033;BME280;70514;52.478;6.102;2023-10-19T00:16:09;99563.13;;;8.26;100.00
81033;BME280;70514;52.478;6.102;2023-10-19T00:18:46;99566.59;;;8.06;100.00
81033;BME280;70514;52.478;6.102;2023-10-19T00:21:17;99571.72;;;8.06;100.00
81033;BME280;70514;52.478;6.102;2023-10-19T00:23:52;99570.84;;;8.23;100.00
81033;BME280;70514;52.478;6.102;2023-10-19T00:26:25;99551.19;;;8.11;100.00
81033;BME280;70514;52.478;6.102;2023-10-19T00:28:56;99552.06;;;8.05;100.00
81033;BME280;70514;52.478;6.102;2023-10-19T00:31:26;99546.09;;;8.08;100.00
81033;BME280;70514;52.478;6.102;2023-10-19T00:33:56;99536.66;;;8.08;100.00
81033;BME280;70514;52.478;6.102;2023-10-19T00:36:25;99540.94;;;8.09;100.00
81033;BME280;70514;52.478;6.102;2023-10-19T00:38:55;99546.94;;;8.13;100.00
81033;BME280;70514;52.478;6.102;2023-10-19T00:41:26;99526.41;;;8.10;100.00
81033;BME280;70514;52.478;6.102;2023-10-19T00:44:01;99523.84;;;8.11;100.00
81033;BME280;70514;52.478;6.102;2023-10-19T00:46:39;99522.09;;;8.26;100.00
81033;BME280;70514;52.478;6.102;2023-10-19T00:49:12;99515.25;;;8.19;100.00
81033;BME280;70514;52.478;6.102;2023-10-19T00:51:48;99517.84;;;8.17;100.00
81033;BME280;70514;52.478;6.102;2023-10-19T00:54:27;99511.00;;;8.19;100.00
81033;BME280;70514;52.478;6.102;2023-10-19T00:57:03;99505.00;;;8.19;100.00
81033;BME280;70514;52.478;6.102;2023-10-19T00:59:42;99500.75;;;8.21;100.00
81033;BME280;70514;52.478;6.102;2023-10-19T01:02:21;99499.88;;;8.26;100.00
81033;BME280;70514;52.478;6.102;2023-10-19T01:04:58;99484.47;;;8.26;100.00
81033;BME280;70514;52.478;6.102;2023-10-19T01:07:29;99481.88;;;8.29;100.00
81033;BME280;70514;52.478;6.102;2023-10-19T01:10:02;99485.34;;;8.33;100.00
81033;BME280;70514;52.478;6.102;2023-10-19T01:12:37;99480.22;;;8.33;100.00
81033;BME280;70514;52.478;6.102;2023-10-19T01:15:17;99481.06;;;8.38;100.00
81033;BME280;70514;52.478;6.102;2023-10-19T01:17:51;99486.16;;;8.39;100.00
81033;BME280;70514;52.478;6.102;2023-10-19T01:20:30;99475.88;;;8.39;100.00
81033;BME280;70514;52.478;6.102;2023-10-19T01:23:03;99466.50;;;8.41;100.00
81033;BME280;70514;52.478;6.102;2023-10-19T01:25:51;99477.56;;;8.54;100.00
81033;BME280;70514;52.478;6.102;2023-10-19T01:28:34;99474.13;;;8.52;100.00
81033;BME280;70514;52.478;6.102;2023-10-19T01:31:27;99475.81;;;8.59;100.00
81033;BME280;70514;52.478;6.102;2023-10-19T01:33:58;99463.84;;;8.57;100.00
81033;BME280;70514;52.478;6.102;2023-10-19T01:36:28;99472.16;;;8.93;100.00
81033;BME280;70514;52.478;6.102;2023-10-19T01:38:57;99461.03;;;8.96;100.00
81033;BME280;70514;52.478;6.102;2023-10-19T01:41:30;99468.81;;;8.84;100.00
81033;BME280;70514;52.478;6.102;2023-10-19T01:44:01;99461.97;;;8.84;100.00
81033;BME280;70514;52.478;6.102;2023-10-19T01:46:35;99456.84;;;8.84;100.00
81033;BME280;70514;52.478;6.102;2023-10-19T01:49:06;99460.28;;;8.80;100.00
81033;BME280;70514;52.478;6.102;2023-10-19T01:51:37;99456.91;;;8.72;100.00
81033;BME280;70514;52.478;6.102;2023-10-19T01:54:09;99451.78;;;8.75;100.00
81033;BME280;70514;52.478;6.102;2023-10-19T01:56:38;99444.06;;;8.74;100.00
81033;BME280;70514;52.478;6.102;2023-10-19T01:59:11;99445.78;;;8.73;100.00
81033;BME280;70514;52.478;6.102;2023-10-19T02:01:40;99435.50;;;8.76;100.00
81033;BME280;70514;52.478;6.102;2023-10-19T02:04:13;99435.50;;;8.78;100.00
81033;BME280;70514;52.478;6.102;2023-10-19T02:06:42;99426.03;;;8.81;100.00
81033;BME280;70514;52.478;6.102;2023-10-19T02:09:15;99426.03;;;8.81;100.00
81033;BME280;70514;52.478;6.102;2023-10-19T02:11:48;99419.97;;;8.93;100.00
81033;BME280;70514;52.478;6.102;2023-10-19T02:14:18;99408.88;;;8.89;100.00
81033;BME280;70514;52.478;6.102;2023-10-19T02:16:55;99411.41;;;8.92;100.00
81033;BME280;70514;52.478;6.102;2023-10-19T02:19:28;99412.28;;;8.91;100.00
81033;BME280;70514;52.478;6.102;2023-10-19T02:22:02;99415.47;;;9.18;100.00
81033;BME280;70514;52.478;6.102;2023-10-19T02:24:37;99412.03;;;9.22;100.00
81033;BME280;70514;52.478;6.102;2023-10-19T02:27:07;99405.22;;;9.18;100.00
81033;BME280;70514;52.478;6.102;2023-10-19T02:29:50;99398.50;;;9.05;100.00
81033;BME280;70514;52.478;6.102;2023-10-19T02:32:19;99406.09;;;9.12;100.00
81033;BME280;70514;52.478;6.102;2023-10-19T02:34:49;99384.75;;;9.10;100.00
81033;BME280;70514;52.478;6.102;2023-10-19T02:37:18;99386.41;;;9.16;100.00
81033;BME280;70514;52.478;6.102;2023-10-19T02:39:47;99392.34;;;9.21;100.00
81033;BME280;70514;52.478;6.102;2023-10-19T02:42:18;99386.41;;;9.16;100.00
81033;BME280;70514;52.478;6.102;2023-10-19T02:44:47;99385.50;;;9.18;100.00
81033;BME280;70514;52.478;6.102;2023-10-19T02:47:19;99385.50;;;9.20;100.00
81033;BME280;70514;52.478;6.102;2023-10-19T02:49:48;99382.06;;;9.22;100.00
81033;BME280;70514;52.478;6.102;2023-10-19T02:52:21;99382.91;;;9.23;100.00
81033;BME280;70514;52.478;6.102;2023-10-19T02:54:51;99393.19;;;9.23;100.00
81033;BME280;70514;52.478;6.102;2023-10-19T02:57:20;99379.47;;;9.27;100.00
81033;BME280;70514;52.478;6.102;2023-10-19T02:59:50;99373.44;;;9.29;100.00
81033;BME280;70514;52.478;6.102;2023-10-19T03:02:18;99372.53;;;9.35;100.00
81033;BME280;70514;52.478;6.102;2023-10-19T03:04:48;99386.13;;;9.43;100.00
81033;BME280;70514;52.478;6.102;2023-10-19T03:07:17;99374.94;;;9.49;100.00
81033;BME280;70514;52.478;6.102;2023-10-19T03:09:47;99374.88;;;9.55;100.00
81033;BME280;70514;52.478;6.102;2023-10-19T03:12:22;99379.97;;;9.59;100.00
81033;BME280;70514;52.478;6.102;2023-10-19T03:14:55;99361.16;;;9.56;100.00
81033;BME280;70514;52.478;6.102;2023-10-19T03:17:24;99370.53;;;9.61;100.00
81033;BME280;70514;52.478;6.102;2023-10-19T03:19:55;99371.38;;;9.60;100.00
81033;BME280;70514;52.478;6.102;2023-10-19T03:22:24;99383.22;;;9.75;100.00
81033;BME280;70514;52.478;6.102;2023-10-19T03:24:53;99378.13;;;9.72;100.00
81033;BME280;70514;52.478;6.102;2023-10-19T03:27:43;99373.78;;;9.75;100.00
81033;BME280;70514;52.478;6.102;2023-10-19T03:30:13;99378.91;;;9.75;100.00
81033;BME280;70514;52.478;6.102;2023-10-19T03:32:45;99373.78;;;9.75;100.00
81033;BME280;70514;52.478;6.102;2023-10-19T03:35:14;99374.56;;;9.80;100.00
81033;BME280;70514;52.478;6.102;2023-10-19T03:37:44;99366.72;;;9.93;100.00
81033;BME280;70514;52.478;6.102;2023-10-19T03:40:17;99365.06;;;9.89;100.00
81033;BME280;70514;52.478;6.102;2023-10-19T03:42:54;99359.03;;;9.91;100.00
81033;BME280;70514;52.478;6.102;2023-10-19T03:45:23;99369.28;;;9.93;100.00
81033;BME280;70514;52.478;6.102;2023-10-19T03:47:54;99363.25;;;9.97;100.00
81033;BME280;70514;52.478;6.102;2023-10-19T03:50:25;99361.50;;;9.99;100.00
81033;BME280;70514;52.478;6.102;2023-10-19T03:52:54;99362.19;;;10.11;100.00
81033;BME280;70514;52.478;6.102;2023-10-19T03:55:24;99352.75;;;10.10;100.00
81033;BME280;70514;52.478;6.102;2023-10-19T03:57:53;99355.28;;;10.15;100.00
81033;BME280;70514;52.478;6.102;2023-10-19T04:00:25;99350.13;;;10.18;100.00
81033;BME280;70514;52.478;6.102;2023-10-19T04:02:57;99351.81;;;10.20;100.00
81033;BME280;70514;52.478;6.102;2023-10-19T04:05:28;99351.75;;;10.25;100.00
81033;BME280;70514;52.478;6.102;2023-10-19T04:07:57;99349.84;;;10.38;100.00
81033;BME280;70514;52.478;6.102;2023-10-19T04:10:28;99338.75;;;10.34;100.00
81033;BME280;70514;52.478;6.102;2023-10-19T04:13:08;99335.31;;;10.34;100.00
81033;BME280;70514;52.478;6.102;2023-10-19T04:15:41;99342.13;;;10.38;100.00
81033;BME280;70514;52.478;6.102;2023-10-19T04:18:10;99336.97;;;10.39;100.00
81033;BME280;70514;52.478;6.102;2023-10-19T04:20:40;99337.75;;;10.44;100.00
81033;BME280;70514;52.478;6.102;2023-10-19T04:23:24;99332.50;;;10.50;100.00
81033;BME280;70514;52.478;6.102;2023-10-19T04:25:56;99326.53;;;10.48;100.00
81033;BME280;70514;52.478;6.102;2023-10-19T04:28:27;99325.56;;;10.54;100.00
81033;BME280;70514;52.478;6.102;2023-10-19T04:30:59;99324.72;;;10.55;100.00
81033;BME280;70514;52.478;6.102;2023-10-19T04:33:35;99325.56;;;10.55;100.00
81033;BME280;70514;52.478;6.102;2023-10-19T04:36:05;99318.59;;;10.62;100.00
81033;BME280;70514;52.478;6.102;2023-10-19T04:38:37;99316.81;;;10.67;100.00
81033;BME280;70514;52.478;6.102;2023-10-19T04:41:19;99320.19;;;10.68;100.00
81033;BME280;70514;52.478;6.102;2023-10-19T04:43:48;99318.44;;;10.71;100.00
81033;BME280;70514;52.478;6.102;2023-10-19T04:46:19;99304.66;;;10.74;100.00
81033;BME280;70514;52.478;6.102;2023-10-19T04:48:48;99311.44;;;10.79;100.00
81033;BME280;70514;52.478;6.102;2023-10-19T04:51:18;99311.44;;;10.78;100.00
81033;BME280;70514;52.478;6.102;2023-10-19T04:53:47;99314.81;;;10.83;100.00
81033;BME280;70514;52.478;6.102;2023-10-19T04:56:19;99309.59;;;10.87;100.00
81033;BME280;70514;52.478;6.102;2023-10-19T04:58:48;99313.81;;;10.91;100.00
81033;BME280;70514;52.478;6.102;2023-10-19T05:01:17;99311.25;;;10.88;100.00
81033;BME280;70514;52.478;6.102;2023-10-19T05:03:46;99305.31;;;10.85;100.00
81033;BME280;70514;52.478;6.102;2023-10-19T05:06:15;99309.47;;;10.93;100.00
81033;BME280;70514;52.478;6.102;2023-10-19T05:08:44;99305.88;;;11.03;100.00
81033;BME280;70514;52.478;6.102;2023-10-19T05:11:15;99305.88;;;11.03;100.00
81033;BME280;70514;52.478;6.102;2023-10-19T05:13:44;99316.19;;;11.02;100.00
81033;BME280;70514;52.478;6.102;2023-10-19T05:16:14;99305.03;;;11.03;100.00
81033;BME280;70514;52.478;6.102;2023-10-19T05:18:44;99308.41;;;11.05;100.00
81033;BME280;70514;52.478;6.102;2023-10-19T05:21:13;99309.22;;;11.08;100.00
81033;BME280;70514;52.478;6.102;2023-10-19T05:23:42;99313.50;;;11.08;100.00
81033;BME280;70514;52.478;6.102;2023-10-19T05:26:11;99310.84;;;11.13;100.00
81033;BME280;70514;52.478;6.102;2023-10-19T05:28:43;99311.72;;;11.13;100.00
81033;BME280;70514;52.478;6.102;2023-10-19T05:31:12;99314.09;;;11.24;100.00
81033;BME280;70514;52.478;6.102;2023-10-19T05:33:41;99315.75;;;11.25;100.00
81033;BME280;70514;52.478;6.102;2023-10-19T05:36:11;99320.88;;;11.28;100.00
81033;BME280;70514;52.478;6.102;2023-10-19T05:38:41;99322.56;;;11.29;100.00
81033;BME280;70514;52.478;6.102;2023-10-19T05:41:10;99320.59;;;11.43;100.00
81033;BME280;70514;52.478;6.102;2023-10-19T05:43:39;99323.03;;;11.49;100.00
81033;BME280;70514;52.478;6.102;2023-10-19T05:46:08;99326.31;;;11.56;100.00
81033;BME280;70514;52.478;6.102;2023-10-19T05:48:39;99326.31;;;11.56;100.00
81033;BME280;70514;52.478;6.102;2023-10-19T05:51:08;99334.88;;;11.58;100.00
81033;BME280;70514;52.478;6.102;2023-10-19T05:53:37;99328.09;;;11.54;100.00
81033;BME280;70514;52.478;6.102;2023-10-19T05:56:07;99336.88;;;11.45;100.00
81033;BME280;70514;52.478;6.102;2023-10-19T05:58:36;99340.13;;;11.53;100.00
81033;BME280;70514;52.478;6.102;2023-10-19T06:01:08;99343.50;;;11.57;100.00
81033;BME280;70514;52.478;6.102;2023-10-19T06:03:37;99348.72;;;11.54;100.00
81033;BME280;70514;52.478;6.102;2023-10-19T06:06:07;99342.81;;;11.48;100.00
81033;BME280;70514;52.478;6.102;2023-10-19T06:08:37;99352.19;;;11.52;100.00
81033;BME280;70514;52.478;6.102;2023-10-19T06:11:06;99352.19;;;11.52;100.00
81033;BME280;70514;52.478;6.102;2023-10-19T06:13:35;99348.72;;;11.54;100.00
81033;BME280;70514;52.478;6.102;2023-10-19T06:16:05;99354.75;;;11.52;100.00
81033;BME280;70514;52.478;6.102;2023-10-19T06:18:34;99361.63;;;11.54;100.00
81033;BME280;70514;52.478;6.102;2023-10-19T06:21:03;99359.81;;;11.59;100.00
81033;BME280;70514;52.478;6.102;2023-10-19T06:23:33;99357.97;;;11.65;100.00
81033;BME280;70514;52.478;6.102;2023-10-19T06:26:09;99367.47;;;11.62;100.00
81033;BME280;70514;52.478;6.102;2023-10-19T06:28:39;99363.13;;;11.65;100.00
81033;BME280;70514;52.478;6.102;2023-10-19T06:31:10;99372.63;;;11.62;100.00
81033;BME280;70514;52.478;6.102;2023-10-19T06:33:39;99368.31;;;11.62;100.00
81033;BME280;70514;52.478;6.102;2023-10-19T06:36:10;99371.56;;;11.72;100.00
81033;BME280;70514;52.478;6.102;2023-10-19T06:38:39;99370.72;;;11.73;100.00
81033;BME280;70514;52.478;6.102;2023-10-19T06:41:12;99374.16;;;11.73;100.00
81033;BME280;70514;52.478;6.102;2023-10-19T06:43:42;99381.78;;;11.79;100.00
81033;BME280;70514;52.478;6.102;2023-10-19T06:46:11;99385.09;;;11.84;100.00
81033;BME280;70514;52.478;6.102;2023-10-19T06:48:41;99378.34;;;11.79;100.00
81033;BME280;70514;52.478;6.102;2023-10-19T06:51:11;99379.88;;;11.87;100.00
81033;BME280;70514;52.478;6.102;2023-10-19T06:53:40;99380.69;;;11.89;100.00
81033;BME280;70514;52.478;6.102;2023-10-19T06:56:10;99382.34;;;11.93;100.00
81033;BME280;70514;52.478;6.102;2023-10-19T06:58:39;99390.06;;;11.95;100.00
81033;BME280;70514;52.478;6.102;2023-10-19T07:01:09;99385.69;;;11.97;100.00
81033;BME280;70514;52.478;6.102;2023-10-19T07:03:38;99394.25;;;12.01;100.00
81033;BME280;70514;52.478;6.102;2023-10-19T07:06:07;99383.88;;;12.02;100.00
81033;BME280;70514;52.478;6.102;2023-10-19T07:08:42;99380.41;;;12.03;100.00
81033;BME280;70514;52.478;6.102;2023-10-19T07:11:11;99382.88;;;12.09;100.00
81033;BME280;70514;52.478;6.102;2023-10-19T07:13:40;99385.34;;;12.14;100.00
81033;BME280;70514;52.478;6.102;2023-10-19T07:16:12;99389.50;;;12.21;100.00
81033;BME280;70514;52.478;6.102;2023-10-19T07:18:42;99393.84;;;12.19;100.00
81033;BME280;70514;52.478;6.102;2023-10-19T07:21:11;99386.94;;;12.21;100.00
81033;BME280;70514;52.478;6.102;2023-10-19T07:23:41;99394.34;;;12.34;100.00
81033;BME280;70514;52.478;6.102;2023-10-19T07:26:10;99399.53;;;12.34;100.00
81033;BME280;70514;52.478;6.102;2023-10-19T07:28:40;99400.13;;;12.47;100.00
81033;BME280;70514;52.478;6.102;2023-10-19T07:31:11;99391.53;;;12.47;100.00
81033;BME280;70514;52.478;6.102;2023-10-19T07:33:44;99406.78;;;12.56;100.00
81033;BME280;70514;52.478;6.102;2023-10-19T07:36:19;99401.72;;;12.53;100.00
81033;BME280;70514;52.478;6.102;2023-10-19T07:38:48;99411.00;;;12.60;100.00
81033;BME280;70514;52.478;6.102;2023-10-19T07:41:17;99409.13;;;12.66;100.00
81033;BME280;70514;52.478;6.102;2023-10-19T07:43:46;99409.97;;;12.68;100.00
81033;BME280;70514;52.478;6.102;2023-10-19T07:46:15;99418.44;;;12.73;100.00
81033;BME280;70514;52.478;6.102;2023-10-19T07:48:44;99410.56;;;12.80;100.00
81033;BME280;70514;52.478;6.102;2023-10-19T07:51:13;99420.91;;;12.80;100.00
81033;BME280;70514;52.478;6.102;2023-10-19T07:53:43;99415.88;;;12.73;100.00
81033;BME280;70514;52.478;6.102;2023-10-19T07:56:12;99418.25;;;12.81;100.00
81033;BME280;70514;52.478;6.102;2023-10-19T07:58:43;99412.06;;;12.88;100.00
81033;BME280;70514;52.478;6.102;2023-10-19T08:01:12;99409.38;;;12.93;100.00
81033;BME280;70514;52.478;6.102;2023-10-19T08:03:41;99410.19;;;12.95;100.00
81033;BME280;70514;52.478;6.102;2023-10-19T08:06:10;99416.13;;;12.98;100.00
81033;BME280;70514;52.478;6.102;2023-10-19T08:08:39;99409.25;;;12.97;100.00
81033;BME280;70514;52.478;6.102;2023-10-19T08:11:10;99410.13;;;12.98;100.00
81033;BME280;70514;52.478;6.102;2023-10-19T08:13:41;99410.75;;;13.07;100.00
81033;BME280;70514;52.478;6.102;2023-10-19T08:16:10;99407.34;;;13.05;100.00
81033;BME280;70514;52.478;6.102;2023-10-19T08:18:41;99415.06;;;13.07;100.00
81033;BME280;70514;52.478;6.102;2023-10-19T08:21:10;99410.53;;;13.16;100.00
81033;BME280;70514;52.478;6.102;2023-10-19T08:23:39;99417.41;;;13.17;100.00
81033;BME280;70514;52.478;6.102;2023-10-19T08:26:09;99414.69;;;13.24;100.00
81033;BME280;70514;52.478;6.102;2023-10-19T08:28:38;99413.59;;;13.32;100.00
81033;BME280;70514;52.478;6.102;2023-10-19T08:31:10;99413.59;;;13.32;100.00
81033;BME280;70514;52.478;6.102;2023-10-19T08:33:39;99413.16;;;13.49;100.00
81033;BME280;70514;52.478;6.102;2023-10-19T08:36:19;99424.44;;;13.46;100.00
81033;BME280;70514;52.478;6.102;2023-10-19T08:38:48;99414.16;;;13.43;100.00
81033;BME280;70514;52.478;6.102;2023-10-19T08:41:17;99419.09;;;13.52;100.00
81033;BME280;70514;52.478;6.102;2023-10-19T08:43:47;99411.28;;;13.54;100.00
81033;BME280;70514;52.478;6.102;2023-10-19T08:46:18;99426.63;;;13.61;100.00
81033;BME280;70514;52.478;6.102;2023-10-19T08:48:47;99424.53;;;13.74;100.00
81033;BME280;70514;52.478;6.102;2023-10-19T08:51:17;99434.13;;;13.71;100.00
81033;BME280;70514;52.478;6.102;2023-10-19T08:53:46;99428.25;;;13.64;100.00
81033;BME280;70514;52.478;6.102;2023-10-19T08:56:15;99430.97;;;13.59;100.00
81033;BME280;70514;52.478;6.102;2023-10-19T08:58:45;99426.34;;;13.72;100.00
81033;BME280;70514;52.478;6.102;2023-10-19T09:01:14;99439.00;;;13.83;98.53
81033;BME280;70514;52.478;6.102;2023-10-19T09:03:44;99426.41;;;14.00;100.00
81033;BME280;70514;52.478;6.102;2023-10-19T09:06:13;99429.13;;;13.95;90.45
81033;BME280;70514;52.478;6.102;2023-10-19T09:08:47;99434.28;;;13.97;100.00
81033;BME280;70514;52.478;6.102;2023-10-19T09:11:17;99431.59;;;14.00;100.00
81033;BME280;70514;52.478;6.102;2023-10-19T09:13:51;99429.78;;;14.03;100.00
81033;BME280;70514;52.478;6.102;2023-10-19T09:16:21;99427.63;;;14.19;100.00
81033;BME280;70514;52.478;6.102;2023-10-19T09:18:51;99428.97;;;14.31;100.00
81033;BME280;70514;52.478;6.102;2023-10-19T09:21:20;99425.53;;;14.30;100.00
81033;BME280;70514;52.478;6.102;2023-10-19T09:23:56;99421.91;;;14.37;100.00
81033;BME280;70514;52.478;6.102;2023-10-19T09:26:25;99409.81;;;14.38;100.00
81033;BME280;70514;52.478;6.102;2023-10-19T09:28:55;99412.09;;;14.49;100.00
81033;BME280;70514;52.478;6.102;2023-10-19T09:31:24;99396.25;;;14.58;100.00
81033;BME280;70514;52.478;6.102;2023-10-19T09:33:54;99393.38;;;14.67;92.74
81033;BME280;70514;52.478;6.102;2023-10-19T09:36:26;99404.09;;;14.82;100.00
81033;BME280;70514;52.478;6.102;2023-10-19T09:38:57;99401.59;;;14.81;100.00
81033;BME280;70514;52.478;6.102;2023-10-19T09:41:27;99405.50;;;14.93;98.96
81033;BME280;70514;52.478;6.102;2023-10-19T09:44:01;99401.53;;;15.09;98.76
81033;BME280;70514;52.478;6.102;2023-10-19T09:46:33;99405.66;;;15.14;100.00
81033;BME280;70514;52.478;6.102;2023-10-19T09:49:07;99406.69;;;15.35;92.08
81033;BME280;70514;52.478;6.102;2023-10-19T09:51:41;99401.19;;;15.44;82.92
81033;BME280;70514;52.478;6.102;2023-10-19T09:54:37;99397.44;;;15.54;76.90
81033;BME280;70514;52.478;6.102;2023-10-19T09:57:13;99389.88;;;15.71;73.14
81033;BME280;70514;52.478;6.102;2023-10-19T09:59:49;99390.09;;;15.65;89.19
81033;BME280;70514;52.478;6.102;2023-10-19T10:02:20;99394.44;;;15.65;73.54
81033;BME280;70514;52.478;6.102;2023-10-19T10:04:55;99394.06;;;15.76;84.95
81033;BME280;70514;52.478;6.102;2023-10-19T10:07:26;99401.31;;;15.66;96.66
81033;BME280;70514;52.478;6.102;2023-10-19T10:10:10;99403.84;;;15.69;88.44
81033;BME280;70514;52.478;6.102;2023-10-19T10:12:39;99416.56;;;15.75;94.95
81033;BME280;70514;52.478;6.102;2023-10-19T10:15:08;99414.28;;;15.91;91.80
81033;BME280;70514;52.478;6.102;2023-10-19T10:17:38;99409.53;;;16.02;96.93
81033;BME280;70514;52.478;6.102;2023-10-19T10:22:44;99414.69;;;16.27;92.08
81033;BME280;70514;52.478;6.102;2023-10-19T10:25:27;99411.47;;;16.20;72.38
81033;BME280;70514;52.478;6.102;2023-10-19T10:27:58;99403.19;;;16.32;73.73
81033;BME280;70514;52.478;6.102;2023-10-19T10:30:27;99401.63;;;16.51;72.21
81033;BME280;70514;52.478;6.102;2023-10-19T10:32:57;99394.59;;;16.77;69.46
81033;BME280;70514;52.478;6.102;2023-10-19T10:38:10;99395.66;;;16.93;88.67
81033;BME280;70514;52.478;6.102;2023-10-19T10:40:43;99391.84;;;17.02;76.98
81033;BME280;70514;52.478;6.102;2023-10-19T10:43:13;99399.78;;;18.37;86.31
81033;BME280;70514;52.478;6.102;2023-10-19T10:45:42;99388.06;;;18.83;63.88
81033;BME280;70514;52.478;6.102;2023-10-19T10:48:13;99385.00;;;20.27;77.14
81033;BME280;70514;52.478;6.102;2023-10-19T10:50:43;99376.06;;;20.78;72.60
81033;BME280;70514;52.478;6.102;2023-10-19T10:53:14;99378.72;;;20.31;50.86
81033;BME280;70514;52.478;6.102;2023-10-19T10:55:47;99373.41;;;20.48;57.31
81033;BME280;70514;52.478;6.102;2023-10-19T10:58:17;99377.28;;;20.57;73.14
81033;BME280;70514;52.478;6.102;2023-10-19T11:00:46;99377.94;;;20.76;68.45
81033;BME280;70514;52.478;6.102;2023-10-19T11:03:16;99375.53;;;19.93;52.41
81033;BME280;70514;52.478;6.102;2023-10-19T11:05:46;99380.59;;;19.46;53.92
81033;BME280;70514;52.478;6.102;2023-10-19T11:08:16;99392.69;;;18.95;74.70
81033;BME280;70514;52.478;6.102;2023-10-19T11:10:46;99390.34;;;18.72;56.50
81033;BME280;70514;52.478;6.102;2023-10-19T11:13:17;99388.25;;;18.43;71.35
81033;BME280;70514;52.478;6.102;2023-10-19T11:15:52;99381.84;;;18.12;83.13
81033;BME280;70514;52.478;6.102;2023-10-19T11:18:34;99373.88;;;17.97;83.02
81033;BME280;70514;52.478;6.102;2023-10-19T11:21:11;99382.16;;;17.86;86.99
81033;BME280;70514;52.478;6.102;2023-10-19T11:23:46;99372.50;;;17.69;87.38
81033;BME280;70514;52.478;6.102;2023-10-19T11:26:16;99368.25;;;17.67;85.70
81033;BME280;70514;52.478;6.102;2023-10-19T11:28:44;99369.25;;;17.64;71.33
81033;BME280;70514;52.478;6.102;2023-10-19T11:31:21;99357.34;;;17.57;90.00
81033;BME280;70514;52.478;6.102;2023-10-19T11:33:54;99351.06;;;17.63;79.69
81033;BME280;70514;52.478;6.102;2023-10-19T11:36:27;99351.50;;;17.72;87.30
81033;BME280;70514;52.478;6.102;2023-10-19T11:38:56;99347.41;;;17.87;73.94
81033;BME280;70514;52.478;6.102;2023-10-19T11:41:25;99349.06;;;18.25;69.27
81033;BME280;70514;52.478;6.102;2023-10-19T11:43:54;99353.38;;;18.64;81.97
81033;BME280;70514;52.478;6.102;2023-10-19T11:46:25;99349.28;;;18.58;83.23
81033;BME280;70514;52.478;6.102;2023-10-19T11:48:54;99332.88;;;18.38;65.68
81033;BME280;70514;52.478;6.102;2023-10-19T11:51:23;99321.75;;;18.15;76.47
81033;BME280;70514;52.478;6.102;2023-10-19T11:53:52;99316.09;;;18.07;69.93
81033;BME280;70514;52.478;6.102;2023-10-19T11:56:22;99322.69;;;18.14;76.13
81033;BME280;70514;52.478;6.102;2023-10-19T11:58:51;99319.94;;;18.17;64.23
81033;BME280;70514;52.478;6.102;2023-10-19T12:01:20;99320.78;;;17.99;86.27
81033;BME280;70514;52.478;6.102;2023-10-19T12:03:49;99316.91;;;17.89;86.21
81033;BME280;70514;52.478;6.102;2023-10-19T12:06:19;99317.81;;;17.69;78.78
81033;BME280;70514;52.478;6.102;2023-10-19T12:08:48;99311.97;;;17.64;87.38
81033;BME280;70514;52.478;6.102;2023-10-19T12:11:17;99312.81;;;17.45;88.90
81033;BME280;70514;52.478;6.102;2023-10-19T12:13:51;99327.16;;;17.34;90.37
81033;BME280;70514;52.478;6.102;2023-10-19T12:16:20;99318.09;;;17.23;88.49
81033;BME280;70514;52.478;6.102;2023-10-19T12:18:53;99325.97;;;17.21;89.06
81033;BME280;70514;52.478;6.102;2023-10-19T12:21:23;99315.44;;;17.24;89.30
81033;BME280;70514;52.478;6.102;2023-10-19T12:23:56;99317.59;;;17.35;91.22
81033;BME280;70514;52.478;6.102;2023-10-19T12:26:25;99311.81;;;17.28;88.50
81033;BME280;70514;52.478;6.102;2023-10-19T12:28:54;99311.38;;;17.37;87.72
81033;BME280;70514;52.478;6.102;2023-10-19T12:31:23;99312.69;;;17.48;78.58
81033;BME280;70514;52.478;6.102;2023-10-19T12:33:54;99314.53;;;17.46;75.01
81033;BME280;70514;52.478;6.102;2023-10-19T12:36:23;99313.41;;;17.51;88.87
81033;BME280;70514;52.478;6.102;2023-10-19T12:38:52;99318.41;;;17.56;75.49
81033;BME280;70514;52.478;6.102;2023-10-19T12:41:21;99318.66;;;17.50;86.80
81033;BME280;70514;52.478;6.102;2023-10-19T12:43:51;99316.66;;;17.36;88.67
81033;BME280;70514;52.478;6.102;2023-10-19T12:46:22;99323.25;;;17.45;85.38
81033;BME280;70514;52.478;6.102;2023-10-19T12:48:54;99318.94;;;17.43;82.42
81033;BME280;70514;52.478;6.102;2023-10-19T12:51:27;99315.81;;;17.56;84.07
81033;BME280;70514;52.478;6.102;2023-10-19T12:53:57;99306.28;;;17.75;87.27
81033;BME280;70514;52.478;6.102;2023-10-19T12:56:26;99298.94;;;17.64;84.67
81033;BME280;70514;52.478;6.102;2023-10-19T12:58:58;99297.31;;;17.41;80.69
81033;BME280;70514;52.478;6.102;2023-10-19T13:01:28;99293.53;;;17.10;92.33
81033;BME280;70514;52.478;6.102;2023-10-19T13:03:57;99291.00;;;16.88;91.61
81033;BME280;70514;52.478;6.102;2023-10-19T13:06:29;99288.84;;;16.77;90.17
81033;BME280;70514;52.478;6.102;2023-10-19T13:09:00;99292.97;;;16.61;92.17
81033;BME280;70514;52.478;6.102;2023-10-19T13:11:29;99290.53;;;16.56;93.19
81033;BME280;70514;52.478;6.102;2023-10-19T13:14:01;99292.25;;;16.57;94.83
81033;BME280;70514;52.478;6.102;2023-10-19T13:16:30;99291.28;;;16.60;94.44
81033;BME280;70514;52.478;6.102;2023-10-19T13:19:00;99289.75;;;16.54;95.08
81033;BME280;70514;52.478;6.102;2023-10-19T13:21:37;99294.72;;;16.61;94.71